sensor_id;sensor_type;location;lat;lon;timestamp;P1;durP1;ratioP1;P2;durP2;ratioP2
33022;SDS011;19390;51.460;5.710;2023-11-21T00:01:17;23.10;;;10.82;;
33022;SDS011;19390;51.460;5.710;2023-11-21T00:03:42;20.88;;;8.93;;
33022;SDS011;19390;51.460;5.710;2023-11-21T00:06:08;22.33;;;10.77;;
33022;SDS011;19390;51.460;5.710;2023-11-21T00:08:35;24.60;;;11.13;;
33022;SDS011;19390;51.460;5.710;2023-11-21T00:11:01;18.60;;;9.75;;
33022;SDS011;19390;51.460;5.710;2023-11-21T00:13:26;22.65;;;10.38;;
33022;SDS011;19390;51.460;5.710;2023-11-21T00:15:52;22.67;;;11.30;;
33022;SDS011;19390;51.460;5.710;2023-11-21T00:18:18;24.65;;;10.60;;
33022;SDS011;19390;51.460;5.710;2023-11-21T00:20:43;21.85;;;9.95;;
33022;SDS011;19390;51.460;5.710;2023-11-21T00:23:09;21.55;;;11.68;;
33022;SDS011;19390;51.460;5.710;2023-11-21T00:25:35;26.67;;;12.38;;
33022;SDS011;19390;51.460;5.710;2023-11-21T00:28:00;18.30;;;9.30;;
33022;SDS011;19390;51.460;5.710;2023-11-21T00:30:26;22.30;;;11.93;;
33022;SDS011;19390;51.460;5.710;2023-11-21T00:32:53;21.88;;;10.85;;
33022;SDS011;19390;51.460;5.710;2023-11-21T00:35:19;26.25;;;12.43;;
33022;SDS011;19390;51.460;5.710;2023-11-21T00:37:45;25.35;;;12.25;;
33022;SDS011;19390;51.460;5.710;2023-11-21T00:40:11;22.90;;;11.63;;
33022;SDS011;19390;51.460;5.710;2023-11-21T00:42:37;22.77;;;11.10;;
33022;SDS011;19390;51.460;5.710;2023-11-21T00:45:03;21.38;;;11.95;;
33022;SDS011;19390;51.460;5.710;2023-11-21T00:47:28;21.75;;;10.75;;
33022;SDS011;19390;51.460;5.710;2023-11-21T00:49:54;20.50;;;10.95;;
33022;SDS011;19390;51.460;5.710;2023-11-21T00:52:20;22.50;;;11.48;;
33022;SDS011;19390;51.460;5.710;2023-11-21T00:54:46;20.70;;;11.13;;
33022;SDS011;19390;51.460;5.710;2023-11-21T00:57:13;28.67;;;12.85;;
33022;SDS011;19390;51.460;5.710;2023-11-21T00:59:38;26.17;;;12.77;;
33022;SDS011;19390;51.460;5.710;2023-11-21T01:02:04;32.53;;;13.52;;
33022;SDS011;19390;51.460;5.710;2023-11-21T01:04:30;31.38;;;13.93;;
33022;SDS011;19390;51.460;5.710;2023-11-21T01:06:57;28.60;;;13.45;;
33022;SDS011;19390;51.460;5.710;2023-11-21T01:09:23;32.80;;;15.70;;
33022;SDS011;19390;51.460;5.710;2023-11-21T01:11:49;31.17;;;14.90;;
33022;SDS011;19390;51.460;5.710;2023-11-21T01:14:14;31.50;;;15.40;;
33022;SDS011;19390;51.460;5.710;2023-11-21T01:16:42;32.53;;;15.65;;
33022;SDS011;19390;51.460;5.710;2023-11-21T01:19:08;38.20;;;17.33;;
33022;SDS011;19390;51.460;5.710;2023-11-21T01:21:34;30.90;;;15.07;;
33022;SDS011;19390;51.460;5.710;2023-11-21T01:23:59;32.75;;;15.35;;
33022;SDS011;19390;51.460;5.710;2023-11-21T01:26:25;33.03;;;15.82;;
33022;SDS011;19390;51.460;5.710;2023-11-21T01:28:51;33.30;;;15.15;;
33022;SDS011;19390;51.460;5.710;2023-11-21T01:31:16;38.50;;;16.13;;
33022;SDS011;19390;51.460;5.710;2023-11-21T01:33:42;35.63;;;15.98;;
33022;SDS011;19390;51.460;5.710;2023-11-21T01:36:07;34.53;;;14.85;;
33022;SDS011;19390;51.460;5.710;2023-11-21T01:38:33;30.17;;;14.70;;
33022;SDS011;19390;51.460;5.710;2023-11-21T01:40:59;28.10;;;14.20;;
33022;SDS011;19390;51.460;5.710;2023-11-21T01:43:26;31.67;;;14.02;;
33022;SDS011;19390;51.460;5.710;2023-11-21T01:45:52;40.20;;;14.45;;
33022;SDS011;19390;51.460;5.710;2023-11-21T01:48:24;26.45;;;13.18;;
33022;SDS011;19390;51.460;5.710;2023-11-21T01:50:50;31.23;;;13.73;;
33022;SDS011;19390;51.460;5.710;2023-11-21T01:53:16;28.60;;;13.90;;
33022;SDS011;19390;51.460;5.710;2023-11-21T01:55:43;35.47;;;14.77;;
33022;SDS011;19390;51.460;5.710;2023-11-21T01:58:11;32.25;;;14.52;;
33022;SDS011;19390;51.460;5.710;2023-11-21T02:00:37;37.95;;;14.52;;
33022;SDS011;19390;51.460;5.710;2023-11-21T02:03:03;41.05;;;16.00;;
33022;SDS011;19390;51.460;5.710;2023-11-21T02:05:29;31.85;;;15.18;;
33022;SDS011;19390;51.460;5.710;2023-11-21T02:07:55;26.42;;;13.38;;
33022;SDS011;19390;51.460;5.710;2023-11-21T02:10:21;33.03;;;14.38;;
33022;SDS011;19390;51.460;5.710;2023-11-21T02:12:50;29.20;;;14.77;;
33022;SDS011;19390;51.460;5.710;2023-11-21T02:15:16;31.75;;;14.48;;
33022;SDS011;19390;51.460;5.710;2023-11-21T02:17:45;27.70;;;13.98;;
33022;SDS011;19390;51.460;5.710;2023-11-21T02:20:16;29.15;;;15.30;;
33022;SDS011;19390;51.460;5.710;2023-11-21T02:22:43;34.97;;;16.52;;
33022;SDS011;19390;51.460;5.710;2023-11-21T02:25:13;36.50;;;16.60;;
33022;SDS011;19390;51.460;5.710;2023-11-21T02:27:39;35.38;;;16.40;;
33022;SDS011;19390;51.460;5.710;2023-11-21T02:30:05;34.55;;;15.23;;
33022;SDS011;19390;51.460;5.710;2023-11-21T02:32:32;36.00;;;16.58;;
33022;SDS011;19390;51.460;5.710;2023-11-21T02:34:58;44.60;;;17.73;;
33022;SDS011;19390;51.460;5.710;2023-11-21T02:37:26;50.63;;;19.15;;
33022;SDS011;19390;51.460;5.710;2023-11-21T02:39:52;35.15;;;17.08;;
33022;SDS011;19390;51.460;5.710;2023-11-21T02:42:18;46.60;;;17.25;;
33022;SDS011;19390;51.460;5.710;2023-11-21T02:44:43;48.92;;;18.60;;
33022;SDS011;19390;51.460;5.710;2023-11-21T02:47:09;57.00;;;19.90;;
33022;SDS011;19390;51.460;5.710;2023-11-21T02:49:35;46.10;;;19.35;;
33022;SDS011;19390;51.460;5.710;2023-11-21T02:52:00;45.55;;;17.63;;
33022;SDS011;19390;51.460;5.710;2023-11-21T02:54:26;57.30;;;20.08;;
33022;SDS011;19390;51.460;5.710;2023-11-21T02:56:52;48.67;;;20.00;;
33022;SDS011;19390;51.460;5.710;2023-11-21T02:59:18;56.42;;;20.50;;
33022;SDS011;19390;51.460;5.710;2023-11-21T03:01:44;54.58;;;20.63;;
33022;SDS011;19390;51.460;5.710;2023-11-21T03:04:10;43.70;;;19.58;;
33022;SDS011;19390;51.460;5.710;2023-11-21T03:06:36;79.32;;;22.23;;
33022;SDS011;19390;51.460;5.710;2023-11-21T03:09:01;39.88;;;19.10;;
33022;SDS011;19390;51.460;5.710;2023-11-21T03:11:27;50.90;;;20.40;;
33022;SDS011;19390;51.460;5.710;2023-11-21T03:13:53;50.35;;;20.65;;
33022;SDS011;19390;51.460;5.710;2023-11-21T03:16:18;46.92;;;20.45;;
33022;SDS011;19390;51.460;5.710;2023-11-21T03:18:44;71.10;;;21.88;;
33022;SDS011;19390;51.460;5.710;2023-11-21T03:21:10;63.55;;;23.92;;
33022;SDS011;19390;51.460;5.710;2023-11-21T03:23:36;64.45;;;23.25;;
33022;SDS011;19390;51.460;5.710;2023-11-21T03:26:02;45.00;;;18.83;;
33022;SDS011;19390;51.460;5.710;2023-11-21T03:28:28;62.25;;;22.92;;
33022;SDS011;19390;51.460;5.710;2023-11-21T03:30:55;49.00;;;21.15;;
33022;SDS011;19390;51.460;5.710;2023-11-21T03:33:21;47.03;;;18.77;;
33022;SDS011;19390;51.460;5.710;2023-11-21T03:35:47;88.03;;;24.15;;
33022;SDS011;19390;51.460;5.710;2023-11-21T03:38:14;55.35;;;21.98;;
33022;SDS011;19390;51.460;5.710;2023-11-21T03:40:41;58.67;;;22.15;;
33022;SDS011;19390;51.460;5.710;2023-11-21T03:43:06;67.28;;;23.77;;
33022;SDS011;19390;51.460;5.710;2023-11-21T03:45:32;77.63;;;21.95;;
33022;SDS011;19390;51.460;5.710;2023-11-21T03:47:58;78.70;;;25.63;;
33022;SDS011;19390;51.460;5.710;2023-11-21T03:50:26;41.15;;;19.70;;
33022;SDS011;19390;51.460;5.710;2023-11-21T03:52:53;49.33;;;21.30;;
33022;SDS011;19390;51.460;5.710;2023-11-21T03:55:19;60.45;;;20.90;;
33022;SDS011;19390;51.460;5.710;2023-11-21T03:57:44;42.90;;;19.92;;
33022;SDS011;19390;51.460;5.710;2023-11-21T04:00:10;54.63;;;20.35;;
33022;SDS011;19390;51.460;5.710;2023-11-21T04:02:36;64.18;;;21.80;;
33022;SDS011;19390;51.460;5.710;2023-11-21T04:05:01;63.50;;;23.00;;
33022;SDS011;19390;51.460;5.710;2023-11-21T04:07:28;47.30;;;19.05;;
33022;SDS011;19390;51.460;5.710;2023-11-21T04:09:53;46.25;;;20.90;;
33022;SDS011;19390;51.460;5.710;2023-11-21T04:12:19;71.88;;;24.38;;
33022;SDS011;19390;51.460;5.710;2023-11-21T04:14:45;54.95;;;20.20;;
33022;SDS011;19390;51.460;5.710;2023-11-21T04:17:11;72.30;;;24.10;;
33022;SDS011;19390;51.460;5.710;2023-11-21T04:19:36;106.22;;;24.98;;
33022;SDS011;19390;51.460;5.710;2023-11-21T04:22:02;95.75;;;26.75;;
33022;SDS011;19390;51.460;5.710;2023-11-21T04:24:29;71.95;;;23.33;;
33022;SDS011;19390;51.460;5.710;2023-11-21T04:26:54;56.15;;;22.52;;
33022;SDS011;19390;51.460;5.710;2023-11-21T04:29:20;85.72;;;23.90;;
33022;SDS011;19390;51.460;5.710;2023-11-21T04:31:46;75.13;;;22.30;;
33022;SDS011;19390;51.460;5.710;2023-11-21T04:34:13;69.25;;;22.50;;
33022;SDS011;19390;51.460;5.710;2023-11-21T04:36:39;65.95;;;23.17;;
33022;SDS011;19390;51.460;5.710;2023-11-21T04:39:05;78.93;;;23.92;;
33022;SDS011;19390;51.460;5.710;2023-11-21T04:41:31;40.47;;;18.45;;
33022;SDS011;19390;51.460;5.710;2023-11-21T04:43:57;44.70;;;19.23;;
33022;SDS011;19390;51.460;5.710;2023-11-21T04:46:23;45.00;;;19.77;;
33022;SDS011;19390;51.460;5.710;2023-11-21T04:48:49;74.32;;;23.25;;
33022;SDS011;19390;51.460;5.710;2023-11-21T04:51:14;60.90;;;23.73;;
33022;SDS011;19390;51.460;5.710;2023-11-21T04:53:40;62.45;;;21.27;;
33022;SDS011;19390;51.460;5.710;2023-11-21T04:56:06;54.45;;;21.23;;
33022;SDS011;19390;51.460;5.710;2023-11-21T04:58:31;50.75;;;17.52;;
33022;SDS011;19390;51.460;5.710;2023-11-21T05:00:58;52.28;;;20.55;;
33022;SDS011;19390;51.460;5.710;2023-11-21T05:03:23;37.28;;;18.73;;
33022;SDS011;19390;51.460;5.710;2023-11-21T05:05:49;43.28;;;19.25;;
33022;SDS011;19390;51.460;5.710;2023-11-21T05:08:14;38.85;;;19.40;;
33022;SDS011;19390;51.460;5.710;2023-11-21T05:10:40;38.60;;;17.77;;
33022;SDS011;19390;51.460;5.710;2023-11-21T05:13:05;39.08;;;17.65;;
33022;SDS011;19390;51.460;5.710;2023-11-21T05:15:35;36.28;;;17.60;;
33022;SDS011;19390;51.460;5.710;2023-11-21T05:18:01;46.45;;;18.48;;
33022;SDS011;19390;51.460;5.710;2023-11-21T05:20:27;37.13;;;17.80;;
33022;SDS011;19390;51.460;5.710;2023-11-21T05:22:53;43.67;;;18.17;;
33022;SDS011;19390;51.460;5.710;2023-11-21T05:25:18;45.95;;;19.33;;
33022;SDS011;19390;51.460;5.710;2023-11-21T05:27:45;38.95;;;18.08;;
33022;SDS011;19390;51.460;5.710;2023-11-21T05:30:11;52.45;;;20.95;;
33022;SDS011;19390;51.460;5.710;2023-11-21T05:32:38;47.47;;;18.95;;
33022;SDS011;19390;51.460;5.710;2023-11-21T05:35:04;58.60;;;20.60;;
33022;SDS011;19390;51.460;5.710;2023-11-21T05:37:35;48.58;;;19.35;;
33022;SDS011;19390;51.460;5.710;2023-11-21T05:40:01;37.42;;;17.58;;
33022;SDS011;19390;51.460;5.710;2023-11-21T05:42:31;41.13;;;18.45;;
33022;SDS011;19390;51.460;5.710;2023-11-21T05:44:57;40.45;;;17.70;;
33022;SDS011;19390;51.460;5.710;2023-11-21T05:47:24;34.40;;;17.27;;
33022;SDS011;19390;51.460;5.710;2023-11-21T05:49:51;39.33;;;17.63;;
33022;SDS011;19390;51.460;5.710;2023-11-21T05:52:17;42.35;;;19.63;;
33022;SDS011;19390;51.460;5.710;2023-11-21T05:54:43;45.25;;;18.65;;
33022;SDS011;19390;51.460;5.710;2023-11-21T05:57:08;34.83;;;16.58;;
33022;SDS011;19390;51.460;5.710;2023-11-21T05:59:34;36.80;;;18.63;;
33022;SDS011;19390;51.460;5.710;2023-11-21T06:01:59;37.75;;;17.60;;
33022;SDS011;19390;51.460;5.710;2023-11-21T06:04:25;35.88;;;17.25;;
33022;SDS011;19390;51.460;5.710;2023-11-21T06:06:51;43.92;;;17.40;;
33022;SDS011;19390;51.460;5.710;2023-11-21T06:09:17;38.15;;;16.73;;
33022;SDS011;19390;51.460;5.710;2023-11-21T06:11:43;36.40;;;17.50;;
33022;SDS011;19390;51.460;5.710;2023-11-21T06:14:09;34.22;;;16.60;;
33022;SDS011;19390;51.460;5.710;2023-11-21T06:16:36;36.03;;;17.02;;
33022;SDS011;19390;51.460;5.710;2023-11-21T06:19:01;35.10;;;16.55;;
33022;SDS011;19390;51.460;5.710;2023-11-21T06:21:27;41.28;;;17.90;;
33022;SDS011;19390;51.460;5.710;2023-11-21T06:23:52;33.50;;;16.70;;
33022;SDS011;19390;51.460;5.710;2023-11-21T06:26:18;36.08;;;15.88;;
33022;SDS011;19390;51.460;5.710;2023-11-21T06:28:44;40.70;;;18.25;;
33022;SDS011;19390;51.460;5.710;2023-11-21T06:31:10;41.17;;;17.92;;
33022;SDS011;19390;51.460;5.710;2023-11-21T06:33:35;40.78;;;17.85;;
33022;SDS011;19390;51.460;5.710;2023-11-21T06:36:01;41.47;;;17.17;;
33022;SDS011;19390;51.460;5.710;2023-11-21T06:38:31;42.08;;;18.58;;
33022;SDS011;19390;51.460;5.710;2023-11-21T06:40:57;41.95;;;17.30;;
33022;SDS011;19390;51.460;5.710;2023-11-21T06:43:23;41.30;;;17.85;;
33022;SDS011;19390;51.460;5.710;2023-11-21T06:45:49;38.38;;;15.75;;
33022;SDS011;19390;51.460;5.710;2023-11-21T06:48:14;37.03;;;16.77;;
33022;SDS011;19390;51.460;5.710;2023-11-21T06:50:40;51.08;;;16.95;;
33022;SDS011;19390;51.460;5.710;2023-11-21T06:53:06;42.50;;;18.38;;
33022;SDS011;19390;51.460;5.710;2023-11-21T06:55:33;46.33;;;18.08;;
33022;SDS011;19390;51.460;5.710;2023-11-21T06:57:58;39.25;;;17.23;;
33022;SDS011;19390;51.460;5.710;2023-11-21T07:00:25;46.90;;;17.73;;
33022;SDS011;19390;51.460;5.710;2023-11-21T07:02:53;50.40;;;18.20;;
33022;SDS011;19390;51.460;5.710;2023-11-21T07:05:20;46.10;;;17.70;;
33022;SDS011;19390;51.460;5.710;2023-11-21T07:07:47;54.40;;;19.55;;
33022;SDS011;19390;51.460;5.710;2023-11-21T07:10:13;44.63;;;18.58;;
33022;SDS011;19390;51.460;5.710;2023-11-21T07:12:39;48.47;;;20.05;;
33022;SDS011;19390;51.460;5.710;2023-11-21T07:15:05;54.85;;;21.42;;
33022;SDS011;19390;51.460;5.710;2023-11-21T07:17:35;50.97;;;19.77;;
33022;SDS011;19390;51.460;5.710;2023-11-21T07:20:01;53.22;;;22.13;;
33022;SDS011;19390;51.460;5.710;2023-11-21T07:22:28;52.20;;;20.40;;
33022;SDS011;19390;51.460;5.710;2023-11-21T07:24:53;56.17;;;20.67;;
33022;SDS011;19390;51.460;5.710;2023-11-21T07:27:21;58.60;;;19.58;;
33022;SDS011;19390;51.460;5.710;2023-11-21T07:29:47;51.63;;;20.23;;
33022;SDS011;19390;51.460;5.710;2023-11-21T07:32:13;55.85;;;21.10;;
33022;SDS011;19390;51.460;5.710;2023-11-21T07:34:39;56.13;;;20.02;;
33022;SDS011;19390;51.460;5.710;2023-11-21T07:37:06;57.08;;;20.33;;
33022;SDS011;19390;51.460;5.710;2023-11-21T07:39:33;60.10;;;20.48;;
33022;SDS011;19390;51.460;5.710;2023-11-21T07:42:00;53.78;;;18.50;;
33022;SDS011;19390;51.460;5.710;2023-11-21T07:44:27;61.60;;;22.52;;
33022;SDS011;19390;51.460;5.710;2023-11-21T07:46:53;57.22;;;20.60;;
33022;SDS011;19390;51.460;5.710;2023-11-21T07:49:22;62.60;;;22.10;;
33022;SDS011;19390;51.460;5.710;2023-11-21T07:51:48;60.30;;;22.05;;
33022;SDS011;19390;51.460;5.710;2023-11-21T07:54:14;55.30;;;19.80;;
33022;SDS011;19390;51.460;5.710;2023-11-21T07:56:40;53.72;;;19.42;;
33022;SDS011;19390;51.460;5.710;2023-11-21T07:59:07;64.05;;;22.98;;
33022;SDS011;19390;51.460;5.710;2023-11-21T08:01:33;57.20;;;20.52;;
33022;SDS011;19390;51.460;5.710;2023-11-21T08:03:58;64.07;;;20.70;;
33022;SDS011;19390;51.460;5.710;2023-11-21T08:06:28;55.00;;;19.60;;
33022;SDS011;19390;51.460;5.710;2023-11-21T08:08:57;57.15;;;20.45;;
33022;SDS011;19390;51.460;5.710;2023-11-21T08:11:23;61.78;;;21.67;;
33022;SDS011;19390;51.460;5.710;2023-11-21T08:13:49;74.55;;;22.70;;
33022;SDS011;19390;51.460;5.710;2023-11-21T08:16:15;57.63;;;21.20;;
33022;SDS011;19390;51.460;5.710;2023-11-21T08:18:41;53.85;;;21.35;;
33022;SDS011;19390;51.460;5.710;2023-11-21T08:21:07;46.30;;;19.20;;
33022;SDS011;19390;51.460;5.710;2023-11-21T08:23:33;55.83;;;18.70;;
33022;SDS011;19390;51.460;5.710;2023-11-21T08:25:59;45.63;;;19.92;;
33022;SDS011;19390;51.460;5.710;2023-11-21T08:28:25;57.83;;;21.80;;
33022;SDS011;19390;51.460;5.710;2023-11-21T08:30:53;51.22;;;20.45;;
33022;SDS011;19390;51.460;5.710;2023-11-21T08:33:22;53.25;;;20.30;;
33022;SDS011;19390;51.460;5.710;2023-11-21T08:35:48;43.72;;;19.17;;
33022;SDS011;19390;51.460;5.710;2023-11-21T08:38:14;47.15;;;18.67;;
33022;SDS011;19390;51.460;5.710;2023-11-21T08:40:39;47.60;;;19.27;;
33022;SDS011;19390;51.460;5.710;2023-11-21T08:43:05;45.75;;;16.80;;
33022;SDS011;19390;51.460;5.710;2023-11-21T08:45:31;42.50;;;16.95;;
33022;SDS011;19390;51.460;5.710;2023-11-21T08:47:59;48.75;;;18.50;;
33022;SDS011;19390;51.460;5.710;2023-11-21T08:50:25;41.45;;;15.65;;
33022;SDS011;19390;51.460;5.710;2023-11-21T08:52:50;38.08;;;17.42;;
33022;SDS011;19390;51.460;5.710;2023-11-21T08:55:16;40.72;;;15.70;;
33022;SDS011;19390;51.460;5.710;2023-11-21T08:57:43;47.35;;;18.35;;
33022;SDS011;19390;51.460;5.710;2023-11-21T09:00:09;43.08;;;17.00;;
33022;SDS011;19390;51.460;5.710;2023-11-21T09:02:41;39.80;;;15.65;;
33022;SDS011;19390;51.460;5.710;2023-11-21T09:05:07;46.53;;;16.98;;
33022;SDS011;19390;51.460;5.710;2023-11-21T09:07:34;44.30;;;16.40;;
33022;SDS011;19390;51.460;5.710;2023-11-21T09:10:00;41.70;;;16.20;;
33022;SDS011;19390;51.460;5.710;2023-11-21T09:12:26;43.22;;;16.77;;
33022;SDS011;19390;51.460;5.710;2023-11-21T09:14:52;43.83;;;17.25;;
33022;SDS011;19390;51.460;5.710;2023-11-21T09:17:17;36.72;;;15.80;;
33022;SDS011;19390;51.460;5.710;2023-11-21T09:19:43;46.13;;;17.13;;
33022;SDS011;19390;51.460;5.710;2023-11-21T09:22:12;40.90;;;15.60;;
33022;SDS011;19390;51.460;5.710;2023-11-21T09:24:37;37.63;;;13.95;;
33022;SDS011;19390;51.460;5.710;2023-11-21T09:27:03;41.47;;;15.77;;
33022;SDS011;19390;51.460;5.710;2023-11-21T09:29:30;43.85;;;16.60;;
33022;SDS011;19390;51.460;5.710;2023-11-21T09:31:56;38.67;;;15.60;;
33022;SDS011;19390;51.460;5.710;2023-11-21T09:34:24;47.40;;;16.50;;
33022;SDS011;19390;51.460;5.710;2023-11-21T09:36:50;45.97;;;15.55;;
33022;SDS011;19390;51.460;5.710;2023-11-21T09:39:16;44.70;;;16.42;;
33022;SDS011;19390;51.460;5.710;2023-11-21T09:41:44;39.83;;;15.50;;
33022;SDS011;19390;51.460;5.710;2023-11-21T09:44:20;43.33;;;17.08;;
33022;SDS011;19390;51.460;5.710;2023-11-21T09:46:56;36.75;;;13.70;;
33022;SDS011;19390;51.460;5.710;2023-11-21T09:49:25;37.88;;;15.48;;
33022;SDS011;19390;51.460;5.710;2023-11-21T09:51:53;39.83;;;15.63;;
33022;SDS011;19390;51.460;5.710;2023-11-21T09:54:21;42.28;;;16.20;;
33022;SDS011;19390;51.460;5.710;2023-11-21T09:56:47;40.67;;;15.57;;
33022;SDS011;19390;51.460;5.710;2023-11-21T09:59:13;42.45;;;16.10;;
33022;SDS011;19390;51.460;5.710;2023-11-21T10:01:40;48.30;;;15.90;;
33022;SDS011;19390;51.460;5.710;2023-11-21T10:04:07;40.40;;;15.48;;
33022;SDS011;19390;51.460;5.710;2023-11-21T10:06:39;39.50;;;14.50;;
33022;SDS011;19390;51.460;5.710;2023-11-21T10:09:10;38.38;;;13.63;;
33022;SDS011;19390;51.460;5.710;2023-11-21T10:11:42;36.50;;;13.15;;
33022;SDS011;19390;51.460;5.710;2023-11-21T10:14:11;35.30;;;13.90;;
33022;SDS011;19390;51.460;5.710;2023-11-21T10:16:39;34.97;;;13.00;;
33022;SDS011;19390;51.460;5.710;2023-11-21T10:19:06;38.83;;;14.43;;
33022;SDS011;19390;51.460;5.710;2023-11-21T10:21:35;34.40;;;12.82;;
33022;SDS011;19390;51.460;5.710;2023-11-21T10:24:02;40.50;;;15.23;;
33022;SDS011;19390;51.460;5.710;2023-11-21T10:26:28;42.85;;;15.77;;
33022;SDS011;19390;51.460;5.710;2023-11-21T10:28:59;36.80;;;14.02;;
33022;SDS011;19390;51.460;5.710;2023-11-21T10:31:28;50.05;;;16.95;;
33022;SDS011;19390;51.460;5.710;2023-11-21T10:36:42;36.88;;;15.65;;
33022;SDS011;19390;51.460;5.710;2023-11-21T10:39:08;36.53;;;14.80;;
33022;SDS011;19390;51.460;5.710;2023-11-21T10:41:35;56.65;;;25.75;;
33022;SDS011;19390;51.460;5.710;2023-11-21T10:44:01;52.15;;;27.55;;
33022;SDS011;19390;51.460;5.710;2023-11-21T10:46:32;40.28;;;14.70;;
33022;SDS011;19390;51.460;5.710;2023-11-21T10:48:59;40.53;;;15.75;;
33022;SDS011;19390;51.460;5.710;2023-11-21T10:51:25;39.75;;;14.23;;
33022;SDS011;19390;51.460;5.710;2023-11-21T10:53:53;41.70;;;15.80;;
33022;SDS011;19390;51.460;5.710;2023-11-21T10:56:19;43.25;;;16.48;;
33022;SDS011;19390;51.460;5.710;2023-11-21T10:58:49;41.65;;;15.82;;
33022;SDS011;19390;51.460;5.710;2023-11-21T11:01:19;43.53;;;17.13;;
33022;SDS011;19390;51.460;5.710;2023-11-21T11:03:48;42.20;;;15.27;;
33022;SDS011;19390;51.460;5.710;2023-11-21T11:06:22;46.58;;;17.88;;
33022;SDS011;19390;51.460;5.710;2023-11-21T11:08:53;41.83;;;15.95;;
33022;SDS011;19390;51.460;5.710;2023-11-21T11:11:19;46.22;;;17.05;;
33022;SDS011;19390;51.460;5.710;2023-11-21T11:13:44;44.05;;;15.85;;
33022;SDS011;19390;51.460;5.710;2023-11-21T11:16:13;41.38;;;17.17;;
33022;SDS011;19390;51.460;5.710;2023-11-21T11:18:42;48.63;;;18.13;;
33022;SDS011;19390;51.460;5.710;2023-11-21T11:32:34;39.30;;;15.63;;
33022;SDS011;19390;51.460;5.710;2023-11-21T11:35:21;43.92;;;17.63;;
33022;SDS011;19390;51.460;5.710;2023-11-21T11:37:55;36.33;;;16.52;;
33022;SDS011;19390;51.460;5.710;2023-11-21T11:40:21;39.63;;;16.50;;
33022;SDS011;19390;51.460;5.710;2023-11-21T11:42:57;40.63;;;16.80;;
33022;SDS011;19390;51.460;5.710;2023-11-21T11:45:24;41.38;;;17.05;;
33022;SDS011;19390;51.460;5.710;2023-11-21T11:47:56;45.15;;;17.48;;
33022;SDS011;19390;51.460;5.710;2023-11-21T11:50:22;38.45;;;16.02;;
33022;SDS011;19390;51.460;5.710;2023-11-21T11:52:50;48.42;;;18.40;;
33022;SDS011;19390;51.460;5.710;2023-11-21T11:55:18;39.30;;;16.90;;
33022;SDS011;19390;51.460;5.710;2023-11-21T11:57:45;42.28;;;17.65;;
33022;SDS011;19390;51.460;5.710;2023-11-21T12:00:17;47.03;;;18.85;;
33022;SDS011;19390;51.460;5.710;2023-11-21T12:02:51;40.97;;;16.67;;
33022;SDS011;19390;51.460;5.710;2023-11-21T12:05:18;49.45;;;18.08;;
33022;SDS011;19390;51.460;5.710;2023-11-21T12:10:15;37.70;;;16.08;;
33022;SDS011;19390;51.460;5.710;2023-11-21T12:12:52;41.92;;;16.02;;
33022;SDS011;19390;51.460;5.710;2023-11-21T12:15:35;42.05;;;16.67;;
33022;SDS011;19390;51.460;5.710;2023-11-21T12:18:02;42.13;;;17.23;;
33022;SDS011;19390;51.460;5.710;2023-11-21T12:20:28;40.35;;;17.40;;
33022;SDS011;19390;51.460;5.710;2023-11-21T12:22:55;36.70;;;16.33;;
33022;SDS011;19390;51.460;5.710;2023-11-21T12:25:25;39.45;;;16.15;;
33022;SDS011;19390;51.460;5.710;2023-11-21T12:27:56;38.90;;;16.05;;
33022;SDS011;19390;51.460;5.710;2023-11-21T12:30:23;41.65;;;16.77;;
33022;SDS011;19390;51.460;5.710;2023-11-21T12:32:53;37.70;;;17.05;;
33022;SDS011;19390;51.460;5.710;2023-11-21T12:35:21;43.55;;;16.45;;
33022;SDS011;19390;51.460;5.710;2023-11-21T12:37:49;37.20;;;17.15;;
33022;SDS011;19390;51.460;5.710;2023-11-21T12:40:16;43.72;;;16.15;;
33022;SDS011;19390;51.460;5.710;2023-11-21T12:42:42;39.90;;;16.45;;
33022;SDS011;19390;51.460;5.710;2023-11-21T12:47:46;37.00;;;16.15;;
33022;SDS011;19390;51.460;5.710;2023-11-21T12:50:18;39.63;;;16.83;;
33022;SDS011;19390;51.460;5.710;2023-11-21T12:52:54;43.35;;;17.48;;
33022;SDS011;19390;51.460;5.710;2023-11-21T12:55:23;42.15;;;17.45;;
33022;SDS011;19390;51.460;5.710;2023-11-21T12:57:50;41.50;;;17.85;;
33022;SDS011;19390;51.460;5.710;2023-11-21T13:00:22;51.95;;;20.13;;
33022;SDS011;19390;51.460;5.710;2023-11-21T13:02:57;47.88;;;20.25;;
33022;SDS011;19390;51.460;5.710;2023-11-21T13:05:41;43.13;;;18.95;;
33022;SDS011;19390;51.460;5.710;2023-11-21T13:08:09;50.17;;;20.50;;
33022;SDS011;19390;51.460;5.710;2023-11-21T13:10:38;50.70;;;19.70;;
33022;SDS011;19390;51.460;5.710;2023-11-21T13:13:11;48.90;;;17.98;;
33022;SDS011;19390;51.460;5.710;2023-11-21T13:15:55;44.83;;;18.58;;
33022;SDS011;19390;51.460;5.710;2023-11-21T13:18:31;41.92;;;17.88;;
33022;SDS011;19390;51.460;5.710;2023-11-21T13:21:04;43.60;;;17.75;;
33022;SDS011;19390;51.460;5.710;2023-11-21T13:23:38;39.17;;;15.88;;
33022;SDS011;19390;51.460;5.710;2023-11-21T13:26:07;36.95;;;15.93;;
33022;SDS011;19390;51.460;5.710;2023-11-21T13:28:33;37.08;;;18.38;;
33022;SDS011;19390;51.460;5.710;2023-11-21T13:31:00;40.80;;;17.50;;
33022;SDS011;19390;51.460;5.710;2023-11-21T13:33:29;39.17;;;14.95;;
33022;SDS011;19390;51.460;5.710;2023-11-21T13:35:55;32.15;;;15.15;;
33022;SDS011;19390;51.460;5.710;2023-11-21T13:38:21;42.10;;;16.42;;
33022;SDS011;19390;51.460;5.710;2023-11-21T13:40:55;38.45;;;16.50;;
33022;SDS011;19390;51.460;5.710;2023-11-21T13:43:22;40.25;;;16.92;;
33022;SDS011;19390;51.460;5.710;2023-11-21T13:45:51;39.53;;;17.15;;
33022;SDS011;19390;51.460;5.710;2023-11-21T13:48:26;40.38;;;16.75;;
33022;SDS011;19390;51.460;5.710;2023-11-21T13:53:33;42.63;;;18.38;;
33022;SDS011;19390;51.460;5.710;2023-11-21T13:56:01;44.80;;;17.40;;
33022;SDS011;19390;51.460;5.710;2023-11-21T13:58:27;45.22;;;17.77;;
33022;SDS011;19390;51.460;5.710;2023-11-21T14:01:11;44.10;;;19.25;;
33022;SDS011;19390;51.460;5.710;2023-11-21T14:03:58;50.03;;;18.45;;
33022;SDS011;19390;51.460;5.710;2023-11-21T14:06:45;51.13;;;18.58;;
33022;SDS011;19390;51.460;5.710;2023-11-21T14:09:19;42.65;;;18.23;;
33022;SDS011;19390;51.460;5.710;2023-11-21T14:11:54;51.88;;;18.60;;
33022;SDS011;19390;51.460;5.710;2023-11-21T14:14:23;47.45;;;19.38;;
33022;SDS011;19390;51.460;5.710;2023-11-21T14:16:51;49.10;;;18.35;;
33022;SDS011;19390;51.460;5.710;2023-11-21T14:19:17;46.90;;;18.20;;
33022;SDS011;19390;51.460;5.710;2023-11-21T14:21:43;49.25;;;19.25;;
33022;SDS011;19390;51.460;5.710;2023-11-21T14:24:13;46.92;;;18.40;;
33022;SDS011;19390;51.460;5.710;2023-11-21T14:26:40;44.10;;;17.63;;
33022;SDS011;19390;51.460;5.710;2023-11-21T14:29:07;46.40;;;17.63;;
33022;SDS011;19390;51.460;5.710;2023-11-21T14:31:34;48.25;;;18.02;;
33022;SDS011;19390;51.460;5.710;2023-11-21T14:34:00;39.90;;;16.77;;
33022;SDS011;19390;51.460;5.710;2023-11-21T14:36:31;49.35;;;18.90;;
33022;SDS011;19390;51.460;5.710;2023-11-21T14:38:56;49.63;;;17.45;;
33022;SDS011;19390;51.460;5.710;2023-11-21T14:41:22;42.55;;;16.73;;
33022;SDS011;19390;51.460;5.710;2023-11-21T14:43:50;46.45;;;18.05;;